Aromas, California
Current Conditions -  °F | °C
As of 11:53 AM on Monday 24 Nov 2014 (Local Time) from KWVI Reporting Station
Clear Clear  
Wind Chill: 66°   Ceiling: Unl
Heat Index: 66°   Visibility: 10mi
Dew Point: 42°   Wind: 3mph
Humidity: 42%   Direction: 150°SSE
Pressure: 30.36"   Gusts: NA
Location:  36.88°N, 121.64°W
Report Text: KWVI 241953Z AUTO 15003KT 10SM CLR 19/06 A3036 RMK AO2 SLP279 T01890056
Loading
Personal Weather Stations






























Interactive Weather Map New forecast layout! Learn more

10-Day Weather Forecast

Advertisements
Track Severe Weather on mobile